Terminal Aerodrome Forecast
Issued by NWS

Home | Current Version | Previous Version | Graphics & Text | Print | Product List | Glossary On
Versions: 1 2 3 4 5 6 7 8 9 10 11 12 13 14 15
000
FTUS45 KRIW 241100
TAFBPI
TAF
KBPI 241123Z 2412/2512 VRB05KT P6SM VCSH SCT025 BKN050
     FM242000 VRB10KT P6SM VCTS SCT025 BKN060CB
     FM250200 34007KT 6SM -RA BR SCT010 OVC025=

USA.gov is the U.S. government's official web portal to all federal, state and local government web resources and services.